sensor_id;sensor_type;location;lat;lon;timestamp;temperature;humidity
14901;DHT22;7542;49.078;9.194;2022-09-20T00:02:05;17.40;79.70
14901;DHT22;7542;49.078;9.194;2022-09-20T00:03:07;14.70;78.40
14901;DHT22;7542;49.078;9.194;2022-09-20T00:04:10;17.80;80.10
14901;DHT22;7542;49.078;9.194;2022-09-20T00:05:11;14.70;78.30
14901;DHT22;7542;49.078;9.194;2022-09-20T00:06:15;14.80;78.30
14901;DHT22;7542;49.078;9.194;2022-09-20T00:07:19;14.80;78.20
14901;DHT22;7542;49.078;9.194;2022-09-20T00:08:20;14.80;78.10
14901;DHT22;7542;49.078;9.194;2022-09-20T00:09:22;14.80;78.30
14901;DHT22;7542;49.078;9.194;2022-09-20T00:10:24;14.80;78.20
14901;DHT22;7542;49.078;9.194;2022-09-20T00:11:30;14.80;78.20
14901;DHT22;7542;49.078;9.194;2022-09-20T00:12:33;14.80;78.00
14901;DHT22;7542;49.078;9.194;2022-09-20T00:13:36;14.80;78.10
14901;DHT22;7542;49.078;9.194;2022-09-20T00:14:39;14.90;78.20
14901;DHT22;7542;49.078;9.194;2022-09-20T00:15:42;14.80;77.90
14901;DHT22;7542;49.078;9.194;2022-09-20T00:16:46;14.70;78.00
14901;DHT22;7542;49.078;9.194;2022-09-20T00:17:48;14.80;77.80
14901;DHT22;7542;49.078;9.194;2022-09-20T00:18:51;14.80;77.90
14901;DHT22;7542;49.078;9.194;2022-09-20T00:19:55;14.90;78.00
14901;DHT22;7542;49.078;9.194;2022-09-20T00:20:56;14.80;78.00
14901;DHT22;7542;49.078;9.194;2022-09-20T00:21:58;14.80;78.10
14901;DHT22;7542;49.078;9.194;2022-09-20T00:23:00;14.80;78.30
14901;DHT22;7542;49.078;9.194;2022-09-20T00:24:02;14.80;78.10
14901;DHT22;7542;49.078;9.194;2022-09-20T00:25:05;14.80;78.20
14901;DHT22;7542;49.078;9.194;2022-09-20T00:26:07;14.80;78.30
14901;DHT22;7542;49.078;9.194;2022-09-20T00:27:09;17.50;80.00
14901;DHT22;7542;49.078;9.194;2022-09-20T00:28:11;16.70;79.50
14901;DHT22;7542;49.078;9.194;2022-09-20T00:29:13;14.80;78.30
14901;DHT22;7542;49.078;9.194;2022-09-20T00:30:15;14.80;78.00
14901;DHT22;7542;49.078;9.194;2022-09-20T00:31:17;16.80;79.20
14901;DHT22;7542;49.078;9.194;2022-09-20T00:32:19;14.80;78.10
14901;DHT22;7542;49.078;9.194;2022-09-20T00:33:22;14.90;78.00
14901;DHT22;7542;49.078;9.194;2022-09-20T00:34:45;14.80;77.80
14901;DHT22;7542;49.078;9.194;2022-09-20T00:36:05;14.80;78.10
14901;DHT22;7542;49.078;9.194;2022-09-20T00:37:07;18.90;80.50
14901;DHT22;7542;49.078;9.194;2022-09-20T00:38:09;14.80;77.90
14901;DHT22;7542;49.078;9.194;2022-09-20T00:39:14;14.80;78.20
14901;DHT22;7542;49.078;9.194;2022-09-20T00:40:18;14.80;78.10
14901;DHT22;7542;49.078;9.194;2022-09-20T00:41:22;14.80;78.20
14901;DHT22;7542;49.078;9.194;2022-09-20T00:42:28;14.70;78.00
14901;DHT22;7542;49.078;9.194;2022-09-20T00:43:37;15.00;77.70
14901;DHT22;7542;49.078;9.194;2022-09-20T00:44:46;14.80;77.50
14901;DHT22;7542;49.078;9.194;2022-09-20T00:45:56;14.80;77.60
14901;DHT22;7542;49.078;9.194;2022-09-20T00:46:59;14.80;77.40
14901;DHT22;7542;49.078;9.194;2022-09-20T00:48:09;14.80;77.30
14901;DHT22;7542;49.078;9.194;2022-09-20T00:49:25;14.80;77.50
14901;DHT22;7542;49.078;9.194;2022-09-20T00:52:01;14.80;77.20
14901;DHT22;7542;49.078;9.194;2022-09-20T00:53:20;14.70;77.30
14901;DHT22;7542;49.078;9.194;2022-09-20T00:54:28;14.70;77.50
14901;DHT22;7542;49.078;9.194;2022-09-20T00:55:34;14.70;77.40
14901;DHT22;7542;49.078;9.194;2022-09-20T00:56:42;14.80;77.20
14901;DHT22;7542;49.078;9.194;2022-09-20T00:57:45;14.70;77.60
14901;DHT22;7542;49.078;9.194;2022-09-20T00:58:57;15.50;77.90
14901;DHT22;7542;49.078;9.194;2022-09-20T01:00:09;14.70;77.20
14901;DHT22;7542;49.078;9.194;2022-09-20T01:01:12;14.70;77.10
14901;DHT22;7542;49.078;9.194;2022-09-20T01:02:22;14.70;77.50
14901;DHT22;7542;49.078;9.194;2022-09-20T01:03:29;17.40;79.10
14901;DHT22;7542;49.078;9.194;2022-09-20T01:04:35;17.90;79.70
14901;DHT22;7542;49.078;9.194;2022-09-20T01:05:43;14.60;77.90
14901;DHT22;7542;49.078;9.194;2022-09-20T01:06:46;16.80;79.50
14901;DHT22;7542;49.078;9.194;2022-09-20T01:07:52;16.80;79.40
14901;DHT22;7542;49.078;9.194;2022-09-20T01:08:57;15.10;78.30
14901;DHT22;7542;49.078;9.194;2022-09-20T01:10:02;14.60;78.20
14901;DHT22;7542;49.078;9.194;2022-09-20T01:11:04;14.70;77.60
14901;DHT22;7542;49.078;9.194;2022-09-20T01:12:11;14.70;77.80
14901;DHT22;7542;49.078;9.194;2022-09-20T01:13:15;14.80;77.20
14901;DHT22;7542;49.078;9.194;2022-09-20T01:14:18;14.70;77.20
14901;DHT22;7542;49.078;9.194;2022-09-20T01:15:22;14.70;77.00
14901;DHT22;7542;49.078;9.194;2022-09-20T01:16:29;17.70;78.30
14901;DHT22;7542;49.078;9.194;2022-09-20T01:17:35;14.80;76.60
14901;DHT22;7542;49.078;9.194;2022-09-20T01:18:40;14.70;76.60
14901;DHT22;7542;49.078;9.194;2022-09-20T01:21:00;15.00;76.10
14901;DHT22;7542;49.078;9.194;2022-09-20T01:22:09;14.80;75.60
14901;DHT22;7542;49.078;9.194;2022-09-20T01:27:48;14.80;75.60
14901;DHT22;7542;49.078;9.194;2022-09-20T01:30:22;14.80;75.10
14901;DHT22;7542;49.078;9.194;2022-09-20T01:31:32;14.80;75.00
14901;DHT22;7542;49.078;9.194;2022-09-20T01:34:08;14.80;75.60
14901;DHT22;7542;49.078;9.194;2022-09-20T01:35:15;14.80;75.60
14901;DHT22;7542;49.078;9.194;2022-09-20T01:38:04;14.80;75.20
14901;DHT22;7542;49.078;9.194;2022-09-20T01:39:33;14.80;75.60
14901;DHT22;7542;49.078;9.194;2022-09-20T01:40:43;17.30;77.00
14901;DHT22;7542;49.078;9.194;2022-09-20T01:41:49;14.80;75.40
14901;DHT22;7542;49.078;9.194;2022-09-20T01:46:32;14.80;75.30
14901;DHT22;7542;49.078;9.194;2022-09-20T01:48:07;14.80;75.40
14901;DHT22;7542;49.078;9.194;2022-09-20T02:10:52;14.70;75.80
14901;DHT22;7542;49.078;9.194;2022-09-20T02:18:01;14.60;76.00
14901;DHT22;7542;49.078;9.194;2022-09-20T02:19:38;14.70;76.00
14901;DHT22;7542;49.078;9.194;2022-09-20T02:21:25;14.70;75.90
14901;DHT22;7542;49.078;9.194;2022-09-20T02:24:28;14.70;76.00
14901;DHT22;7542;49.078;9.194;2022-09-20T02:26:04;17.30;77.50
14901;DHT22;7542;49.078;9.194;2022-09-20T02:35:10;14.80;75.40
14901;DHT22;7542;49.078;9.194;2022-09-20T02:38:17;14.70;75.20
14901;DHT22;7542;49.078;9.194;2022-09-20T02:39:42;14.60;75.10
14901;DHT22;7542;49.078;9.194;2022-09-20T02:42:42;14.70;75.30
14901;DHT22;7542;49.078;9.194;2022-09-20T02:45:53;14.70;75.40
14901;DHT22;7542;49.078;9.194;2022-09-20T02:48:07;14.60;75.10
14901;DHT22;7542;49.078;9.194;2022-09-20T02:51:08;14.70;75.90
14901;DHT22;7542;49.078;9.194;2022-09-20T02:54:09;14.60;75.90
14901;DHT22;7542;49.078;9.194;2022-09-20T02:56:50;14.70;75.60
14901;DHT22;7542;49.078;9.194;2022-09-20T02:59:56;14.60;75.00
14901;DHT22;7542;49.078;9.194;2022-09-20T03:06:29;14.60;77.10
14901;DHT22;7542;49.078;9.194;2022-09-20T03:07:56;14.70;77.50
14901;DHT22;7542;49.078;9.194;2022-09-20T03:09:50;19.20;80.30
14901;DHT22;7542;49.078;9.194;2022-09-20T03:11:27;14.60;77.60
14901;DHT22;7542;49.078;9.194;2022-09-20T03:14:19;14.80;78.00
14901;DHT22;7542;49.078;9.194;2022-09-20T03:17:16;14.60;77.20
14901;DHT22;7542;49.078;9.194;2022-09-20T03:18:45;14.60;76.60
14901;DHT22;7542;49.078;9.194;2022-09-20T03:20:14;14.50;76.00
14901;DHT22;7542;49.078;9.194;2022-09-20T03:25:27;14.60;76.20
14901;DHT22;7542;49.078;9.194;2022-09-20T03:30:24;14.70;75.00
14901;DHT22;7542;49.078;9.194;2022-09-20T03:39:31;15.20;75.00
14901;DHT22;7542;49.078;9.194;2022-09-20T03:41:09;14.50;74.30
14901;DHT22;7542;49.078;9.194;2022-09-20T03:42:35;14.60;74.50
14901;DHT22;7542;49.078;9.194;2022-09-20T03:45:20;14.60;74.10
14901;DHT22;7542;49.078;9.194;2022-09-20T03:46:40;14.60;74.40
14901;DHT22;7542;49.078;9.194;2022-09-20T03:49:46;14.60;74.70
14901;DHT22;7542;49.078;9.194;2022-09-20T04:05:13;14.50;74.00
14901;DHT22;7542;49.078;9.194;2022-09-20T04:06:33;14.70;74.10
14901;DHT22;7542;49.078;9.194;2022-09-20T04:13:06;14.30;73.80
14901;DHT22;7542;49.078;9.194;2022-09-20T04:19:37;14.40;73.90
14901;DHT22;7542;49.078;9.194;2022-09-20T04:20:56;14.40;73.90
14901;DHT22;7542;49.078;9.194;2022-09-20T04:22:20;14.40;74.00
14901;DHT22;7542;49.078;9.194;2022-09-20T04:24:04;14.30;73.80
14901;DHT22;7542;49.078;9.194;2022-09-20T04:25:36;14.30;73.70
14901;DHT22;7542;49.078;9.194;2022-09-20T04:26:48;14.30;73.90
14901;DHT22;7542;49.078;9.194;2022-09-20T04:28:03;14.40;73.90
14901;DHT22;7542;49.078;9.194;2022-09-20T04:30:54;14.30;74.00
14901;DHT22;7542;49.078;9.194;2022-09-20T04:33:49;14.20;74.10
14901;DHT22;7542;49.078;9.194;2022-09-20T04:35:10;14.20;74.60
14901;DHT22;7542;49.078;9.194;2022-09-20T04:36:56;14.20;74.60
14901;DHT22;7542;49.078;9.194;2022-09-20T04:38:12;14.20;74.60
14901;DHT22;7542;49.078;9.194;2022-09-20T04:41:06;14.30;74.70
14901;DHT22;7542;49.078;9.194;2022-09-20T04:42:42;14.20;74.20
14901;DHT22;7542;49.078;9.194;2022-09-20T04:45:27;14.30;74.30
14901;DHT22;7542;49.078;9.194;2022-09-20T04:53:56;14.20;74.50
14901;DHT22;7542;49.078;9.194;2022-09-20T04:59:06;14.10;74.40
14901;DHT22;7542;49.078;9.194;2022-09-20T05:00:15;14.10;74.30
14901;DHT22;7542;49.078;9.194;2022-09-20T05:01:51;14.10;74.10
14901;DHT22;7542;49.078;9.194;2022-09-20T05:16:17;14.10;75.00
14901;DHT22;7542;49.078;9.194;2022-09-20T05:17:35;14.10;75.40
14901;DHT22;7542;49.078;9.194;2022-09-20T05:19:06;14.10;75.40
14901;DHT22;7542;49.078;9.194;2022-09-20T05:23:08;14.00;74.80
14901;DHT22;7542;49.078;9.194;2022-09-20T05:32:59;14.00;74.80
14901;DHT22;7542;49.078;9.194;2022-09-20T05:34:52;14.00;74.60
14901;DHT22;7542;49.078;9.194;2022-09-20T05:37:47;14.10;74.90
14901;DHT22;7542;49.078;9.194;2022-09-20T05:42:31;14.10;74.70
14901;DHT22;7542;49.078;9.194;2022-09-20T05:43:49;17.30;76.60
14901;DHT22;7542;49.078;9.194;2022-09-20T05:48:56;14.00;74.20
14901;DHT22;7542;49.078;9.194;2022-09-20T05:57:34;14.00;74.00
14901;DHT22;7542;49.078;9.194;2022-09-20T06:00:21;14.00;73.90
14901;DHT22;7542;49.078;9.194;2022-09-20T06:02:07;16.50;75.60
14901;DHT22;7542;49.078;9.194;2022-09-20T06:03:47;14.00;73.80
14901;DHT22;7542;49.078;9.194;2022-09-20T06:05:12;13.90;73.80
14901;DHT22;7542;49.078;9.194;2022-09-20T06:06:28;13.90;73.90
14901;DHT22;7542;49.078;9.194;2022-09-20T06:08:02;13.90;74.00
14901;DHT22;7542;49.078;9.194;2022-09-20T06:14:19;13.90;74.30
14901;DHT22;7542;49.078;9.194;2022-09-20T06:18:49;13.90;74.80
14901;DHT22;7542;49.078;9.194;2022-09-20T06:21:55;13.90;74.60
14901;DHT22;7542;49.078;9.194;2022-09-20T06:23:04;13.90;74.70
14901;DHT22;7542;49.078;9.194;2022-09-20T06:26:03;14.00;74.80
14901;DHT22;7542;49.078;9.194;2022-09-20T06:27:17;16.50;76.40
14901;DHT22;7542;49.078;9.194;2022-09-20T06:28:33;14.00;75.10
14901;DHT22;7542;49.078;9.194;2022-09-20T06:29:43;13.90;75.00
14901;DHT22;7542;49.078;9.194;2022-09-20T06:30:54;14.00;75.20
14901;DHT22;7542;49.078;9.194;2022-09-20T06:31:57;14.00;75.20
14901;DHT22;7542;49.078;9.194;2022-09-20T06:33:12;15.40;76.40
14901;DHT22;7542;49.078;9.194;2022-09-20T06:34:18;14.00;75.50
14901;DHT22;7542;49.078;9.194;2022-09-20T06:35:23;13.90;75.80
14901;DHT22;7542;49.078;9.194;2022-09-20T06:36:32;13.90;76.10
14901;DHT22;7542;49.078;9.194;2022-09-20T06:38:03;14.00;76.50
14901;DHT22;7542;49.078;9.194;2022-09-20T06:41:31;14.00;76.30
14901;DHT22;7542;49.078;9.194;2022-09-20T06:42:35;14.20;75.90
14901;DHT22;7542;49.078;9.194;2022-09-20T06:43:39;14.20;75.90
14901;DHT22;7542;49.078;9.194;2022-09-20T06:44:41;17.20;77.60
14901;DHT22;7542;49.078;9.194;2022-09-20T06:45:44;14.10;75.60
14901;DHT22;7542;49.078;9.194;2022-09-20T06:46:45;14.20;75.80
14901;DHT22;7542;49.078;9.194;2022-09-20T06:47:48;14.30;75.90
14901;DHT22;7542;49.078;9.194;2022-09-20T06:48:49;14.20;75.80
14901;DHT22;7542;49.078;9.194;2022-09-20T06:49:51;14.20;75.60
14901;DHT22;7542;49.078;9.194;2022-09-20T06:50:53;14.10;75.40
14901;DHT22;7542;49.078;9.194;2022-09-20T06:51:56;16.70;76.90
14901;DHT22;7542;49.078;9.194;2022-09-20T06:52:59;14.30;75.30
14901;DHT22;7542;49.078;9.194;2022-09-20T06:54:01;16.30;76.30
14901;DHT22;7542;49.078;9.194;2022-09-20T06:55:04;14.40;75.10
14901;DHT22;7542;49.078;9.194;2022-09-20T06:56:15;14.40;75.10
14901;DHT22;7542;49.078;9.194;2022-09-20T06:57:35;14.30;75.10
14901;DHT22;7542;49.078;9.194;2022-09-20T06:58:38;14.30;75.30
14901;DHT22;7542;49.078;9.194;2022-09-20T06:59:40;16.10;76.40
14901;DHT22;7542;49.078;9.194;2022-09-20T07:00:42;17.90;77.60
14901;DHT22;7542;49.078;9.194;2022-09-20T07:01:43;14.50;75.40
14901;DHT22;7542;49.078;9.194;2022-09-20T07:02:45;14.50;75.20
14901;DHT22;7542;49.078;9.194;2022-09-20T07:03:47;14.50;74.90
14901;DHT22;7542;49.078;9.194;2022-09-20T07:04:49;14.50;74.90
14901;DHT22;7542;49.078;9.194;2022-09-20T07:05:54;14.50;74.80
14901;DHT22;7542;49.078;9.194;2022-09-20T07:07:04;17.70;76.60
14901;DHT22;7542;49.078;9.194;2022-09-20T07:08:10;14.70;74.60
14901;DHT22;7542;49.078;9.194;2022-09-20T07:09:12;14.70;74.00
14901;DHT22;7542;49.078;9.194;2022-09-20T07:10:14;14.70;74.10
14901;DHT22;7542;49.078;9.194;2022-09-20T07:11:17;14.70;74.50
14901;DHT22;7542;49.078;9.194;2022-09-20T07:12:19;17.50;76.00
14901;DHT22;7542;49.078;9.194;2022-09-20T07:13:21;14.80;73.90
14901;DHT22;7542;49.078;9.194;2022-09-20T07:14:25;14.80;73.80
14901;DHT22;7542;49.078;9.194;2022-09-20T07:15:30;17.00;75.70
14901;DHT22;7542;49.078;9.194;2022-09-20T07:16:33;16.40;75.30
14901;DHT22;7542;49.078;9.194;2022-09-20T07:17:37;17.40;76.00
14901;DHT22;7542;49.078;9.194;2022-09-20T07:18:39;14.80;74.50
14901;DHT22;7542;49.078;9.194;2022-09-20T07:19:41;17.20;76.00
14901;DHT22;7542;49.078;9.194;2022-09-20T07:20:43;14.80;74.90
14901;DHT22;7542;49.078;9.194;2022-09-20T07:21:45;14.80;75.10
14901;DHT22;7542;49.078;9.194;2022-09-20T07:22:47;14.90;74.90
14901;DHT22;7542;49.078;9.194;2022-09-20T07:23:49;14.90;74.50
14901;DHT22;7542;49.078;9.194;2022-09-20T07:24:51;15.00;74.10
14901;DHT22;7542;49.078;9.194;2022-09-20T07:25:54;18.50;76.00
14901;DHT22;7542;49.078;9.194;2022-09-20T07:27:02;15.10;74.10
14901;DHT22;7542;49.078;9.194;2022-09-20T07:28:05;15.10;74.10
14901;DHT22;7542;49.078;9.194;2022-09-20T07:29:08;15.00;73.70
14901;DHT22;7542;49.078;9.194;2022-09-20T07:30:10;15.20;73.50
14901;DHT22;7542;49.078;9.194;2022-09-20T07:31:13;15.20;73.50
14901;DHT22;7542;49.078;9.194;2022-09-20T07:32:15;15.20;73.50
14901;DHT22;7542;49.078;9.194;2022-09-20T07:33:18;15.20;73.50
14901;DHT22;7542;49.078;9.194;2022-09-20T07:34:22;15.20;73.60
14901;DHT22;7542;49.078;9.194;2022-09-20T07:35:24;18.60;75.90
14901;DHT22;7542;49.078;9.194;2022-09-20T07:36:26;15.20;73.60
14901;DHT22;7542;49.078;9.194;2022-09-20T07:37:29;16.60;74.30
14901;DHT22;7542;49.078;9.194;2022-09-20T07:38:38;15.20;73.30
14901;DHT22;7542;49.078;9.194;2022-09-20T07:39:40;17.90;75.00
14901;DHT22;7542;49.078;9.194;2022-09-20T07:40:42;15.20;73.60
14901;DHT22;7542;49.078;9.194;2022-09-20T07:41:45;17.60;74.80
14901;DHT22;7542;49.078;9.194;2022-09-20T07:42:49;18.20;74.70
14901;DHT22;7542;49.078;9.194;2022-09-20T07:43:56;16.30;73.50
14901;DHT22;7542;49.078;9.194;2022-09-20T07:45:18;15.30;72.40
14901;DHT22;7542;49.078;9.194;2022-09-20T07:46:20;15.40;72.00
14901;DHT22;7542;49.078;9.194;2022-09-20T07:47:22;19.00;74.40
14901;DHT22;7542;49.078;9.194;2022-09-20T07:48:29;15.40;72.30
14901;DHT22;7542;49.078;9.194;2022-09-20T07:49:32;16.90;73.40
14901;DHT22;7542;49.078;9.194;2022-09-20T07:50:34;15.80;72.80
14901;DHT22;7542;49.078;9.194;2022-09-20T07:51:36;19.00;74.30
14901;DHT22;7542;49.078;9.194;2022-09-20T07:52:38;15.60;72.20
14901;DHT22;7542;49.078;9.194;2022-09-20T07:53:40;17.80;73.60
14901;DHT22;7542;49.078;9.194;2022-09-20T07:54:42;16.90;73.10
14901;DHT22;7542;49.078;9.194;2022-09-20T07:56:02;15.50;71.80
14901;DHT22;7542;49.078;9.194;2022-09-20T07:57:05;15.60;71.00
14901;DHT22;7542;49.078;9.194;2022-09-20T07:58:07;15.40;70.80
14901;DHT22;7542;49.078;9.194;2022-09-20T07:59:09;15.60;70.40
14901;DHT22;7542;49.078;9.194;2022-09-20T08:00:11;15.60;70.00
14901;DHT22;7542;49.078;9.194;2022-09-20T08:01:13;15.70;70.00
14901;DHT22;7542;49.078;9.194;2022-09-20T08:02:15;15.40;70.10
14901;DHT22;7542;49.078;9.194;2022-09-20T08:03:17;15.70;70.50
14901;DHT22;7542;49.078;9.194;2022-09-20T08:04:19;20.20;73.30
14901;DHT22;7542;49.078;9.194;2022-09-20T08:05:21;18.00;71.80
14901;DHT22;7542;49.078;9.194;2022-09-20T08:06:23;18.60;72.20
14901;DHT22;7542;49.078;9.194;2022-09-20T08:07:25;18.20;71.90
14901;DHT22;7542;49.078;9.194;2022-09-20T08:08:27;16.00;70.50
14901;DHT22;7542;49.078;9.194;2022-09-20T08:09:32;18.00;71.60
14901;DHT22;7542;49.078;9.194;2022-09-20T08:10:33;16.00;70.10
14901;DHT22;7542;49.078;9.194;2022-09-20T08:11:35;17.80;70.60
14901;DHT22;7542;49.078;9.194;2022-09-20T08:12:38;16.20;69.10
14901;DHT22;7542;49.078;9.194;2022-09-20T08:14:02;16.20;68.50
14901;DHT22;7542;49.078;9.194;2022-09-20T08:15:09;16.20;67.90
14901;DHT22;7542;49.078;9.194;2022-09-20T08:16:13;16.20;67.60
14901;DHT22;7542;49.078;9.194;2022-09-20T08:17:16;16.30;68.30
14901;DHT22;7542;49.078;9.194;2022-09-20T08:18:18;16.70;68.10
14901;DHT22;7542;49.078;9.194;2022-09-20T08:19:21;16.40;67.70
14901;DHT22;7542;49.078;9.194;2022-09-20T08:20:24;16.50;67.60
14901;DHT22;7542;49.078;9.194;2022-09-20T08:21:30;20.10;69.30
14901;DHT22;7542;49.078;9.194;2022-09-20T08:22:32;16.50;67.60
14901;DHT22;7542;49.078;9.194;2022-09-20T08:23:39;16.50;67.90
14901;DHT22;7542;49.078;9.194;2022-09-20T08:24:43;19.60;69.60
14901;DHT22;7542;49.078;9.194;2022-09-20T08:25:44;16.50;67.70
14901;DHT22;7542;49.078;9.194;2022-09-20T08:26:47;17.60;67.90
14901;DHT22;7542;49.078;9.194;2022-09-20T08:27:53;20.00;68.10
14901;DHT22;7542;49.078;9.194;2022-09-20T08:28:57;16.60;65.90
14901;DHT22;7542;49.078;9.194;2022-09-20T08:29:59;16.70;64.60
14901;DHT22;7542;49.078;9.194;2022-09-20T08:31:06;17.60;64.80
14901;DHT22;7542;49.078;9.194;2022-09-20T08:32:10;16.70;63.70
14901;DHT22;7542;49.078;9.194;2022-09-20T08:33:12;16.80;63.10
14901;DHT22;7542;49.078;9.194;2022-09-20T08:34:14;20.30;65.10
14901;DHT22;7542;49.078;9.194;2022-09-20T08:35:18;21.00;65.40
14901;DHT22;7542;49.078;9.194;2022-09-20T08:36:21;17.60;63.30
14901;DHT22;7542;49.078;9.194;2022-09-20T08:37:25;20.00;64.60
14901;DHT22;7542;49.078;9.194;2022-09-20T08:38:27;19.90;64.30
14901;DHT22;7542;49.078;9.194;2022-09-20T08:39:50;20.30;64.30
14901;DHT22;7542;49.078;9.194;2022-09-20T08:41:03;16.80;62.50
14901;DHT22;7542;49.078;9.194;2022-09-20T08:42:30;16.90;62.10
14901;DHT22;7542;49.078;9.194;2022-09-20T08:43:55;17.00;62.50
14901;DHT22;7542;49.078;9.194;2022-09-20T08:45:06;17.10;62.20
14901;DHT22;7542;49.078;9.194;2022-09-20T08:46:26;17.20;62.80
14901;DHT22;7542;49.078;9.194;2022-09-20T08:47:33;21.40;65.00
14901;DHT22;7542;49.078;9.194;2022-09-20T08:48:38;20.90;63.50
14901;DHT22;7542;49.078;9.194;2022-09-20T08:49:41;19.60;63.00
14901;DHT22;7542;49.078;9.194;2022-09-20T08:50:46;20.80;64.40
14901;DHT22;7542;49.078;9.194;2022-09-20T08:51:49;17.40;62.50
14901;DHT22;7542;49.078;9.194;2022-09-20T08:52:56;19.00;63.30
14901;DHT22;7542;49.078;9.194;2022-09-20T08:54:07;19.10;63.50
14901;DHT22;7542;49.078;9.194;2022-09-20T08:55:16;20.90;64.50
14901;DHT22;7542;49.078;9.194;2022-09-20T08:56:31;17.80;62.40
14901;DHT22;7542;49.078;9.194;2022-09-20T08:57:38;19.50;63.30
14901;DHT22;7542;49.078;9.194;2022-09-20T08:58:41;18.70;62.60
14901;DHT22;7542;49.078;9.194;2022-09-20T08:59:43;20.00;62.80
14901;DHT22;7542;49.078;9.194;2022-09-20T09:00:46;19.00;60.60
14901;DHT22;7542;49.078;9.194;2022-09-20T09:01:49;19.00;59.80
14901;DHT22;7542;49.078;9.194;2022-09-20T09:02:55;18.30;58.90
14901;DHT22;7542;49.078;9.194;2022-09-20T09:06:35;18.10;58.10
14901;DHT22;7542;49.078;9.194;2022-09-20T09:07:37;20.70;60.20
14901;DHT22;7542;49.078;9.194;2022-09-20T09:08:42;18.20;58.50
14901;DHT22;7542;49.078;9.194;2022-09-20T09:09:46;18.20;59.30
14901;DHT22;7542;49.078;9.194;2022-09-20T09:10:55;18.10;58.40
14901;DHT22;7542;49.078;9.194;2022-09-20T09:12:00;21.60;61.30
14901;DHT22;7542;49.078;9.194;2022-09-20T09:13:04;18.30;59.70
14901;DHT22;7542;49.078;9.194;2022-09-20T09:15:58;18.30;58.60
14901;DHT22;7542;49.078;9.194;2022-09-20T09:17:03;18.30;57.90
14901;DHT22;7542;49.078;9.194;2022-09-20T09:18:08;18.10;59.10
14901;DHT22;7542;49.078;9.194;2022-09-20T09:19:26;18.10;57.60
14901;DHT22;7542;49.078;9.194;2022-09-20T09:20:44;18.10;59.00
14901;DHT22;7542;49.078;9.194;2022-09-20T09:21:47;20.90;59.30
14901;DHT22;7542;49.078;9.194;2022-09-20T09:23:06;18.30;58.10
14901;DHT22;7542;49.078;9.194;2022-09-20T09:24:16;18.30;58.90
14901;DHT22;7542;49.078;9.194;2022-09-20T09:26:26;18.50;58.90
14901;DHT22;7542;49.078;9.194;2022-09-20T09:27:28;19.30;58.70
14901;DHT22;7542;49.078;9.194;2022-09-20T09:28:30;21.80;60.40
14901;DHT22;7542;49.078;9.194;2022-09-20T09:29:48;18.70;56.40
14901;DHT22;7542;49.078;9.194;2022-09-20T09:30:52;18.50;56.60
14901;DHT22;7542;49.078;9.194;2022-09-20T09:32:31;20.90;57.90
14901;DHT22;7542;49.078;9.194;2022-09-20T09:33:33;20.20;57.60
14901;DHT22;7542;49.078;9.194;2022-09-20T09:34:35;18.40;56.20
14901;DHT22;7542;49.078;9.194;2022-09-20T09:35:40;18.30;56.30
14901;DHT22;7542;49.078;9.194;2022-09-20T09:36:44;19.10;56.90
14901;DHT22;7542;49.078;9.194;2022-09-20T09:37:58;18.30;56.20
14901;DHT22;7542;49.078;9.194;2022-09-20T09:39:24;18.30;57.10
14901;DHT22;7542;49.078;9.194;2022-09-20T09:40:30;18.40;56.90
14901;DHT22;7542;49.078;9.194;2022-09-20T09:41:33;20.80;57.40
14901;DHT22;7542;49.078;9.194;2022-09-20T09:42:47;18.30;56.50
14901;DHT22;7542;49.078;9.194;2022-09-20T09:44:16;18.30;56.30
14901;DHT22;7542;49.078;9.194;2022-09-20T09:45:35;18.30;56.80
14901;DHT22;7542;49.078;9.194;2022-09-20T09:46:40;18.40;56.50
14901;DHT22;7542;49.078;9.194;2022-09-20T09:47:42;22.30;58.60
14901;DHT22;7542;49.078;9.194;2022-09-20T09:48:44;18.80;56.50
14901;DHT22;7542;49.078;9.194;2022-09-20T09:49:58;18.90;57.30
14901;DHT22;7542;49.078;9.194;2022-09-20T09:51:12;19.50;57.40
14901;DHT22;7542;49.078;9.194;2022-09-20T09:52:17;19.20;56.70
14901;DHT22;7542;49.078;9.194;2022-09-20T09:53:24;23.00;58.80
14901;DHT22;7542;49.078;9.194;2022-09-20T09:54:38;23.30;58.10
14901;DHT22;7542;49.078;9.194;2022-09-20T09:57:52;22.50;55.80
14901;DHT22;7542;49.078;9.194;2022-09-20T09:59:29;19.60;54.30
14901;DHT22;7542;49.078;9.194;2022-09-20T10:00:42;19.40;54.90
14901;DHT22;7542;49.078;9.194;2022-09-20T10:04:19;19.20;55.20
14901;DHT22;7542;49.078;9.194;2022-09-20T10:08:45;22.10;56.10
14901;DHT22;7542;49.078;9.194;2022-09-20T10:10:11;18.80;54.70
14901;DHT22;7542;49.078;9.194;2022-09-20T10:15:51;21.40;51.50
14901;DHT22;7542;49.078;9.194;2022-09-20T10:18:58;26.80;47.40
14901;DHT22;7542;49.078;9.194;2022-09-20T10:23:55;28.80;38.00
14901;DHT22;7542;49.078;9.194;2022-09-20T10:29:24;33.90;30.00
14901;DHT22;7542;49.078;9.194;2022-09-20T10:35:54;33.10;31.00
14901;DHT22;7542;49.078;9.194;2022-09-20T10:37:00;31.50;35.10
14901;DHT22;7542;49.078;9.194;2022-09-20T10:38:12;28.70;35.70
14901;DHT22;7542;49.078;9.194;2022-09-20T10:39:33;27.50;38.40
14901;DHT22;7542;49.078;9.194;2022-09-20T10:42:46;25.60;41.30
14901;DHT22;7542;49.078;9.194;2022-09-20T10:45:43;24.00;43.60
14901;DHT22;7542;49.078;9.194;2022-09-20T10:47:16;24.20;44.10
14901;DHT22;7542;49.078;9.194;2022-09-20T10:48:35;28.70;44.40
14901;DHT22;7542;49.078;9.194;2022-09-20T10:50:59;24.20;42.00
14901;DHT22;7542;49.078;9.194;2022-09-20T10:58:19;22.50;45.80
14901;DHT22;7542;49.078;9.194;2022-09-20T11:01:40;21.90;46.50
14901;DHT22;7542;49.078;9.194;2022-09-20T11:08:44;21.50;47.90
14901;DHT22;7542;49.078;9.194;2022-09-20T11:09:58;21.90;48.50
14901;DHT22;7542;49.078;9.194;2022-09-20T11:11:15;26.00;49.40
14901;DHT22;7542;49.078;9.194;2022-09-20T11:13:39;24.20;48.60
14901;DHT22;7542;49.078;9.194;2022-09-20T11:15:04;22.70;47.30
14901;DHT22;7542;49.078;9.194;2022-09-20T11:17:49;23.10;46.20
14901;DHT22;7542;49.078;9.194;2022-09-20T11:20:45;23.30;45.50
14901;DHT22;7542;49.078;9.194;2022-09-20T11:22:21;26.50;46.80
14901;DHT22;7542;49.078;9.194;2022-09-20T11:23:41;23.50;46.20
14901;DHT22;7542;49.078;9.194;2022-09-20T11:25:11;23.50;45.30
14901;DHT22;7542;49.078;9.194;2022-09-20T11:27:47;23.50;44.30
14901;DHT22;7542;49.078;9.194;2022-09-20T11:29:00;23.50;44.50
14901;DHT22;7542;49.078;9.194;2022-09-20T11:30:21;26.40;44.80
14901;DHT22;7542;49.078;9.194;2022-09-20T11:31:37;23.20;45.10
14901;DHT22;7542;49.078;9.194;2022-09-20T11:34:23;23.00;44.90
14901;DHT22;7542;49.078;9.194;2022-09-20T11:35:50;22.80;44.50
14901;DHT22;7542;49.078;9.194;2022-09-20T11:36:58;24.70;45.70
14901;DHT22;7542;49.078;9.194;2022-09-20T11:39:48;22.40;45.30
14901;DHT22;7542;49.078;9.194;2022-09-20T11:41:30;22.20;44.80
14901;DHT22;7542;49.078;9.194;2022-09-20T11:42:35;22.00;46.30
14901;DHT22;7542;49.078;9.194;2022-09-20T11:43:41;25.10;48.00
14901;DHT22;7542;49.078;9.194;2022-09-20T11:44:46;24.30;48.00
14901;DHT22;7542;49.078;9.194;2022-09-20T11:45:53;24.40;48.70